Peplin, Wisconsin
Current Conditions -  °F | °C
As of 1:45 PM on Sunday 25 Jan 2015 (Local Time) from KCWA Reporting Station
Clear Clear  
Wind Chill: 13°   Ceiling: Unl
Heat Index: 21°   Visibility: 10mi
Dew Point:   Wind: 7mph
Humidity: 58%   Direction: 20°NNE
Pressure: 29.99"   Gusts: NA
Location:  44.7605°N, 89.5918°W
Report Text: KCWA 251945Z 02006KT 10SM SKC M06/M13 A2999
Loading
Personal Weather Stations






























Interactive Weather Map New forecast layout! Learn more

10-Day Weather Forecast

Advertisements
Track Severe Weather on mobile